Time;durP1;ratioP1;P1;durP2;ratioP2;P2;SDS_P1;SDS_P2;PMS_P1;PMS_P2;Temp;Humidity;BMP_temperature;BMP_pressure;BME280_temperature;BME280_humidity;BME280_pressure;Samples;Min_cycle;Max_cycle;Signal;HPM_P1;HPM_P2
2021/11/07 00:02:31;;;;;;;;;;;9.60;96.30;;;;;;4393018;32;32342;-81
2021/11/07 00:05:00;;;;;;;;;;;9.50;96.30;;;;;;4406061;32;30753;-81
2021/11/07 00:07:53;;;;;;;;;;;9.60;96.40;;;;;;4393126;32;37685;-80
2021/11/07 00:12:49;;;;;;;;;;;9.60;96.40;;;;;;4407242;32;19996;-81
2021/11/07 00:15:18;;;;;;;;;;;9.60;96.40;;;;;;4406560;32;36186;-82
2021/11/07 00:17:50;;;;;;;;;;;9.60;96.40;;;;;;4405773;32;42595;-80
2021/11/07 00:20:26;;;;;;;;;;;9.50;96.40;;;;;;4392754;32;40132;-81
2021/11/07 00:23:04;;;;;;;;;;;9.60;96.50;;;;;;4406355;32;42966;-82
2021/11/07 00:28:14;;;;;;;;;;;9.50;96.50;;;;;;4406200;32;38419;-80
2021/11/07 00:31:31;;;;;;;;;;;9.50;96.50;;;;;;4406254;32;38990;-81
2021/11/07 00:44:02;;;;;;;;;;;9.50;96.70;;;;;;4405780;32;43618;-81
2021/11/07 00:46:44;;;;;;;;;;;9.50;96.70;;;;;;4393454;32;20003;-81
2021/11/07 00:49:39;;;;;;;;;;;9.50;96.80;;;;;;4393527;32;20086;-81
2021/11/07 00:54:57;;;;;;;;;;;9.50;96.80;;;;;;4406664;32;20024;-81
2021/11/07 00:58:12;;;;;;;;;;;9.50;96.90;;;;;;4379822;32;21318;-82
2021/11/07 01:00:38;;;;;;;;;;;9.50;97.00;;;;;;4387180;32;23500;-81
2021/11/07 01:03:12;;;;;;;;;;;9.50;97.00;;;;;;4406370;32;20010;-81
2021/11/07 01:05:39;;;;;;;;;;;9.40;97.10;;;;;;4380216;32;20409;-81
2021/11/07 01:08:06;;;;;;;;;;;9.40;97.10;;;;;;4392949;32;20022;-81
2021/11/07 01:10:33;;;;;;;;;;;9.40;97.20;;;;;;4406341;32;20059;-81
2021/11/07 01:13:03;;;;;;;;;;;9.40;97.20;;;;;;4392917;32;20423;-81
2021/11/07 01:15:33;;;;;;;;;;;9.40;97.20;;;;;;4392741;32;20046;-81
2021/11/07 01:18:00;;;;;;;;;;;9.40;97.30;;;;;;4406175;32;20003;-81
2021/11/07 01:20:29;;;;;;;;;;;9.30;97.30;;;;;;4392717;32;20021;-81
2021/11/07 01:25:39;;;;;;;;;;;9.30;97.30;;;;;;4406012;32;20016;-81
2021/11/07 01:28:08;;;;;;;;;;;9.30;97.40;;;;;;4393162;32;20355;-81
2021/11/07 01:30:45;;;;;;;;;;;9.30;97.50;;;;;;4392802;32;20408;-81
2021/11/07 01:33:19;;;;;;;;;;;9.30;97.60;;;;;;4406762;32;20000;-81
2021/11/07 01:38:28;;;;;;;;;;;9.30;97.60;;;;;;4392267;32;20015;-81
2021/11/07 01:43:30;;;;;;;;;;;9.30;97.80;;;;;;4406130;32;20020;-81
2021/11/07 01:46:17;;;;;;;;;;;9.30;97.80;;;;;;4392652;32;20015;-81
2021/11/07 01:48:49;;;;;;;;;;;9.30;97.90;;;;;;4392527;32;20012;-80
2021/11/07 01:51:16;;;;;;;;;;;9.30;97.90;;;;;;4405415;32;40674;-82
2021/11/07 01:53:45;;;;;;;;;;;9.30;98.00;;;;;;4378896;32;33084;-81
2021/11/07 01:56:13;;;;;;;;;;;9.30;98.10;;;;;;4405824;32;28413;-81
2021/11/07 01:58:42;;;;;;;;;;;9.30;98.00;;;;;;4404990;32;43332;-80
2021/11/07 02:01:10;;;;;;;;;;;9.30;98.10;;;;;;4404935;32;44848;-81
2021/11/07 02:03:38;;;;;;;;;;;9.30;98.20;;;;;;4391978;32;20364;-82
2021/11/07 02:06:05;;;;;;;;;;;9.20;98.30;;;;;;4391681;32;37751;-81
2021/11/07 02:08:32;;;;;;;;;;;9.30;98.30;;;;;;4391264;32;39161;-81
2021/11/07 02:11:00;;;;;;;;;;;9.30;98.30;;;;;;4404600;32;43981;-81
2021/11/07 02:13:27;;;;;;;;;;;9.30;98.30;;;;;;4378877;32;36923;-80
2021/11/07 02:15:55;;;;;;;;;;;9.30;98.30;;;;;;4405135;32;43681;-81
2021/11/07 02:18:24;;;;;;;;;;;9.30;98.20;;;;;;4391215;32;43961;-82
2021/11/07 02:20:51;;;;;;;;;;;9.30;98.20;;;;;;4391406;32;40919;-81
2021/11/07 02:23:21;;;;;;;;;;;9.30;98.30;;;;;;4392575;32;20045;-80
2021/11/07 02:25:50;;;;;;;;;;;9.30;98.30;;;;;;4404779;32;42135;-81
2021/11/07 02:28:23;;;;;;;;;;;9.30;98.40;;;;;;4378826;32;37986;-81
2021/11/07 02:30:51;;;;;;;;;;;9.30;98.20;;;;;;4405089;32;38907;-82
2021/11/07 02:33:18;;;;;;;;;;;9.30;98.20;;;;;;4390736;32;42747;-81
2021/11/07 02:35:45;;;;;;;;;;;9.30;98.10;;;;;;4390663;32;46858;-82
2021/11/07 02:38:13;;;;;;;;;;;9.40;98.20;;;;;;4390981;32;39023;-81
2021/11/07 02:40:40;;;;;;;;;;;9.40;98.20;;;;;;4404363;32;43230;-81
2021/11/07 02:43:07;;;;;;;;;;;9.40;98.20;;;;;;4405980;32;20026;-81
2021/11/07 02:45:37;;;;;;;;;;;9.40;98.20;;;;;;4378204;32;45589;-81
2021/11/07 02:48:04;;;;;;;;;;;9.40;98.20;;;;;;4391196;32;44047;-82
2021/11/07 02:50:31;;;;;;;;;;;9.40;98.20;;;;;;4404839;32;36341;-81
2021/11/07 02:52:59;;;;;;;;;;;9.40;98.20;;;;;;4393190;32;33395;-80
2021/11/07 02:55:29;;;;;;;;;;;9.40;98.20;;;;;;4394748;32;20050;-80
2021/11/07 02:57:58;;;;;;;;;;;9.40;98.30;;;;;;4407007;32;42458;-80
2021/11/07 03:00:27;;;;;;;;;;;9.40;98.30;;;;;;4393801;32;44223;-81
2021/11/07 03:02:54;;;;;;;;;;;9.50;98.30;;;;;;4407329;32;39618;-82
2021/11/07 03:05:22;;;;;;;;;;;9.40;98.30;;;;;;4393327;32;43380;-81
2021/11/07 03:07:50;;;;;;;;;;;9.40;98.30;;;;;;4407281;32;43122;-81
2021/11/07 03:10:21;;;;;;;;;;;9.40;98.40;;;;;;4407188;32;41954;-80
2021/11/07 03:13:01;;;;;;;;;;;9.50;98.40;;;;;;4407388;32;40635;-81
2021/11/07 03:15:28;;;;;;;;;;;9.40;98.40;;;;;;4393671;32;43308;-81
2021/11/07 03:17:57;;;;;;;;;;;9.40;98.40;;;;;;4380838;32;44842;-82
2021/11/07 03:20:24;;;;;;;;;;;9.50;98.40;;;;;;4407383;32;38231;-81
2021/11/07 03:22:53;;;;;;;;;;;9.50;98.40;;;;;;4406953;32;34134;-81
2021/11/07 03:25:21;;;;;;;;;;;9.50;98.40;;;;;;4393545;32;40999;-82
2021/11/07 03:27:51;;;;;;;;;;;9.50;98.50;;;;;;4407056;32;43161;-82
2021/11/07 03:33:08;;;;;;;;;;;9.50;98.50;;;;;;4407536;32;36569;-81
2021/11/07 03:35:35;;;;;;;;;;;9.50;98.60;;;;;;4394391;32;20408;-81
2021/11/07 03:38:02;;;;;;;;;;;9.50;98.60;;;;;;4380803;32;38644;-81
2021/11/07 03:40:30;;;;;;;;;;;9.50;98.70;;;;;;4406463;32;39442;-83
2021/11/07 03:42:57;;;;;;;;;;;9.50;98.70;;;;;;4407019;32;44446;-81
2021/11/07 03:45:27;;;;;;;;;;;9.50;98.60;;;;;;4391880;32;44476;-82
2021/11/07 03:48:00;;;;;;;;;;;9.50;98.60;;;;;;4394625;32;20000;-82
2021/11/07 03:50:28;;;;;;;;;;;9.50;98.60;;;;;;4393643;32;20440;-81
2021/11/07 03:52:56;;;;;;;;;;;9.50;98.60;;;;;;4394120;32;20007;-81
2021/11/07 03:55:23;;;;;;;;;;;9.50;98.60;;;;;;4407149;32;20051;-81
2021/11/07 03:57:53;;;;;;;;;;;9.50;98.60;;;;;;4393443;32;20384;-82
2021/11/07 04:00:20;;;;;;;;;;;9.50;98.70;;;;;;4407090;32;20008;-81
2021/11/07 04:02:48;;;;;;;;;;;9.50;98.70;;;;;;4406649;32;20361;-82
2021/11/07 04:05:15;;;;;;;;;;;9.50;98.70;;;;;;4407329;32;20046;-81
2021/11/07 04:07:43;;;;;;;;;;;9.50;98.70;;;;;;4407781;32;20012;-82
2021/11/07 04:10:11;;;;;;;;;;;9.50;98.80;;;;;;4393279;32;20016;-81
2021/11/07 04:12:41;;;;;;;;;;;9.60;98.80;;;;;;4394162;32;20018;-82
2021/11/07 04:15:08;;;;;;;;;;;9.50;98.70;;;;;;4407398;32;20018;-82
2021/11/07 04:17:37;;;;;;;;;;;9.60;98.80;;;;;;4381076;32;20006;-83
2021/11/07 04:20:05;;;;;;;;;;;9.60;98.80;;;;;;4393056;32;20102;-82
2021/11/07 04:22:33;;;;;;;;;;;9.60;98.70;;;;;;4406844;32;20000;-81
2021/11/07 04:25:00;;;;;;;;;;;9.60;98.70;;;;;;4407151;32;20019;-83
2021/11/07 04:27:29;;;;;;;;;;;9.60;98.80;;;;;;4406514;32;20022;-82
2021/11/07 04:29:58;;;;;;;;;;;9.60;99.10;;;;;;4406933;32;20019;-82
2021/11/07 04:32:25;;;;;;;;;;;9.60;98.80;;;;;;4406882;32;20016;-81
2021/11/07 04:34:52;;;;;;;;;;;9.60;98.80;;;;;;4406599;32;20019;-83
2021/11/07 04:37:21;;;;;;;;;;;9.60;98.80;;;;;;4392931;32;20004;-81
2021/11/07 04:39:48;;;;;;;;;;;9.60;98.80;;;;;;4380076;32;20014;-82
2021/11/07 04:42:15;;;;;;;;;;;9.60;98.80;;;;;;4406745;32;21462;-81
2021/11/07 04:44:42;;;;;;;;;;;9.70;99.20;;;;;;4407084;32;20412;-82
2021/11/07 04:47:09;;;;;;;;;;;9.60;98.80;;;;;;4392959;32;20023;-81
2021/11/07 04:49:37;;;;;;;;;;;9.70;98.90;;;;;;4379948;32;20003;-81
2021/11/07 04:52:04;;;;;;;;;;;9.70;98.90;;;;;;4406383;32;20080;-81
2021/11/07 04:54:31;;;;;;;;;;;9.60;98.90;;;;;;4406994;32;20019;-81
2021/11/07 04:57:02;;;;;;;;;;;9.70;99.00;;;;;;4392517;32;20004;-81
2021/11/07 04:59:29;;;;;;;;;;;9.70;99.10;;;;;;4392812;32;20018;-81
2021/11/07 05:01:56;;;;;;;;;;;9.60;99.30;;;;;;4406179;32;20043;-81
2021/11/07 05:04:23;;;;;;;;;;;9.60;99.00;;;;;;4392433;32;20019;-82
2021/11/07 05:06:51;;;;;;;;;;;9.70;99.00;;;;;;4406386;32;20003;-82
2021/11/07 05:09:21;;;;;;;;;;;9.70;99.10;;;;;;4406385;32;20022;-80
2021/11/07 05:11:48;;;;;;;;;;;9.70;99.00;;;;;;4392311;32;20443;-81
2021/11/07 05:14:15;;;;;;;;;;;9.70;99.10;;;;;;4405812;32;19999;-82
2021/11/07 05:16:43;;;;;;;;;;;9.70;99.00;;;;;;4379895;32;20004;-81
2021/11/07 05:19:11;;;;;;;;;;;9.70;99.00;;;;;;4379805;32;20268;-82
2021/11/07 05:21:39;;;;;;;;;;;9.70;99.10;;;;;;4379724;32;20648;-83
2021/11/07 05:24:06;;;;;;;;;;;9.70;99.00;;;;;;4391897;32;20090;-81
2021/11/07 05:26:34;;;;;;;;;;;9.70;99.10;;;;;;4406261;32;20004;-82
2021/11/07 05:29:04;;;;;;;;;;;9.70;99.10;;;;;;4392294;32;20004;-82
2021/11/07 05:31:32;;;;;;;;;;;9.70;99.10;;;;;;4392820;32;20016;-82
2021/11/07 05:33:59;;;;;;;;;;;9.80;99.10;;;;;;4392505;32;20020;-82
2021/11/07 05:36:27;;;;;;;;;;;9.70;99.10;;;;;;4392438;32;20008;-81
2021/11/07 05:38:54;;;;;;;;;;;9.80;99.10;;;;;;4405874;32;20012;-81
2021/11/07 05:41:21;;;;;;;;;;;9.80;99.10;;;;;;4406006;32;20102;-82
2021/11/07 05:43:48;;;;;;;;;;;9.80;99.20;;;;;;4406469;32;20420;-81
2021/11/07 05:46:15;;;;;;;;;;;9.80;99.30;;;;;;4406173;32;20014;-81
2021/11/07 05:48:45;;;;;;;;;;;9.80;99.30;;;;;;4392021;32;20417;-82
2021/11/07 05:51:12;;;;;;;;;;;9.80;99.30;;;;;;4406194;32;20012;-81
2021/11/07 05:53:39;;;;;;;;;;;9.80;99.30;;;;;;4392778;32;20016;-83
2021/11/07 05:56:07;;;;;;;;;;;9.80;99.30;;;;;;4392054;32;22272;-81
2021/11/07 05:58:34;;;;;;;;;;;9.80;99.30;;;;;;4406398;32;20077;-82
2021/11/07 06:01:02;;;;;;;;;;;9.80;99.70;;;;;;4405799;32;20010;-83
2021/11/07 06:03:30;;;;;;;;;;;9.80;99.30;;;;;;4406183;32;20008;-82
2021/11/07 06:05:57;;;;;;;;;;;9.80;99.30;;;;;;4392130;32;20359;-82
2021/11/07 06:08:24;;;;;;;;;;;9.80;99.30;;;;;;4405740;32;20018;-82
2021/11/07 06:10:51;;;;;;;;;;;9.80;99.30;;;;;;4405903;32;20008;-82
2021/11/07 06:13:18;;;;;;;;;;;9.90;99.30;;;;;;4405553;32;20018;-83
2021/11/07 06:15:46;;;;;;;;;;;9.90;99.30;;;;;;4406050;32;20004;-82
2021/11/07 06:18:13;;;;;;;;;;;9.90;99.30;;;;;;4405841;32;20446;-83
2021/11/07 06:20:41;;;;;;;;;;;9.90;99.30;;;;;;4405252;32;20023;-82
2021/11/07 06:23:10;;;;;;;;;;;9.80;99.30;;;;;;4379669;32;20007;-81
2021/11/07 06:25:38;;;;;;;;;;;9.90;99.30;;;;;;4405252;32;20022;-82
2021/11/07 06:28:05;;;;;;;;;;;9.90;99.30;;;;;;4381858;32;20071;-82
2021/11/07 06:30:34;;;;;;;;;;;9.90;99.30;;;;;;4394633;32;20049;-82
2021/11/07 06:33:01;;;;;;;;;;;9.90;99.30;;;;;;4408694;32;20008;-82
2021/11/07 06:35:31;;;;;;;;;;;9.90;99.30;;;;;;4408854;32;20008;-82
2021/11/07 06:37:58;;;;;;;;;;;9.90;99.30;;;;;;4394473;32;20027;-81
2021/11/07 06:40:27;;;;;;;;;;;9.90;99.30;;;;;;4394603;32;20007;-82
2021/11/07 06:42:55;;;;;;;;;;;9.90;99.30;;;;;;4395272;32;20498;-83
2021/11/07 06:45:23;;;;;;;;;;;9.90;99.50;;;;;;4394776;32;20423;-82
2021/11/07 06:47:50;;;;;;;;;;;9.90;99.40;;;;;;4407903;32;20052;-82
2021/11/07 06:50:17;;;;;;;;;;;9.90;99.50;;;;;;4394239;32;20019;-81
2021/11/07 06:52:45;;;;;;;;;;;9.90;99.40;;;;;;4408160;32;20042;-81
2021/11/07 06:55:13;;;;;;;;;;;9.90;99.40;;;;;;4395073;32;20003;-82
2021/11/07 06:57:42;;;;;;;;;;;10.00;99.50;;;;;;4381744;32;20326;-81
2021/11/07 07:00:12;;;;;;;;;;;10.00;99.50;;;;;;4382004;32;20007;-82
2021/11/07 07:02:40;;;;;;;;;;;10.00;99.50;;;;;;4406842;32;41370;-81
2021/11/07 07:05:08;;;;;;;;;;;10.00;99.50;;;;;;4407242;32;43519;-83
2021/11/07 07:07:37;;;;;;;;;;;10.00;99.50;;;;;;4393923;32;39894;-82
2021/11/07 07:10:08;;;;;;;;;;;10.00;99.50;;;;;;4407051;32;43631;-83
2021/11/07 07:12:58;;;;;;;;;;;10.00;99.50;;;;;;4380987;32;41846;-82
2021/11/07 07:15:30;;;;;;;;;;;10.00;99.60;;;;;;4393820;32;44317;-83
2021/11/07 07:18:29;;;;;;;;;;;10.00;99.60;;;;;;4380786;32;45877;-83
2021/11/07 07:36:04;;;;;;;;;;;10.00;99.60;;;;;;4406965;32;44926;-81
2021/11/07 07:38:31;;;;;;;;;;;10.00;99.60;;;;;;4406534;32;44734;-81
2021/11/07 07:40:59;;;;;;;;;;;10.10;99.60;;;;;;4393138;32;43678;-81
2021/11/07 07:43:26;;;;;;;;;;;10.10;99.60;;;;;;4392726;32;45126;-81
2021/11/07 07:45:56;;;;;;;;;;;10.10;99.60;;;;;;4406460;32;39636;-81
2021/11/07 07:48:23;;;;;;;;;;;10.10;99.60;;;;;;4393284;32;43366;-81
2021/11/07 07:50:50;;;;;;;;;;;10.10;99.60;;;;;;4406746;32;44688;-81
2021/11/07 07:53:21;;;;;;;;;;;10.10;99.60;;;;;;4406255;32;44765;-81
2021/11/07 07:55:50;;;;;;;;;;;10.10;99.70;;;;;;4407964;32;19999;-81
2021/11/07 07:58:17;;;;;;;;;;;10.10;99.70;;;;;;4406156;32;43301;-81
2021/11/07 08:00:44;;;;;;;;;;;10.10;99.70;;;;;;4407341;32;20008;-81
2021/11/07 08:03:12;;;;;;;;;;;10.10;99.70;;;;;;4405937;32;43504;-81
2021/11/07 08:05:39;;;;;;;;;;;10.10;99.70;;;;;;4406605;32;42137;-81
2021/11/07 08:08:06;;;;;;;;;;;10.10;99.70;;;;;;4392539;32;42422;-81
2021/11/07 08:10:33;;;;;;;;;;;10.10;99.70;;;;;;4406175;32;43369;-81
2021/11/07 08:13:00;;;;;;;;;;;10.10;99.70;;;;;;4406797;32;34194;-81
2021/11/07 08:15:29;;;;;;;;;;;10.20;99.70;;;;;;4392690;32;42070;-82
2021/11/07 08:17:57;;;;;;;;;;;10.10;99.70;;;;;;4392259;32;44702;-80
2021/11/07 08:20:24;;;;;;;;;;;10.10;99.70;;;;;;4406448;32;43037;-81
2021/11/07 08:22:53;;;;;;;;;;;10.20;99.80;;;;;;4392745;32;43628;-81
2021/11/07 08:25:22;;;;;;;;;;;10.20;99.70;;;;;;4407226;32;20007;-81
2021/11/07 08:27:51;;;;;;;;;;;10.20;99.70;;;;;;4406247;32;44719;-81
2021/11/07 08:30:22;;;;;;;;;;;10.20;99.70;;;;;;4392322;32;44981;-81
2021/11/07 08:32:52;;;;;;;;;;;10.20;99.70;;;;;;4407457;32;20012;-81
2021/11/07 08:35:20;;;;;;;;;;;10.20;99.70;;;;;;4405782;32;41937;-81
2021/11/07 08:37:56;;;;;;;;;;;10.20;99.70;;;;;;4393293;32;20076;-81
2021/11/07 08:40:37;;;;;;;;;;;10.20;99.70;;;;;;4406419;32;32097;-81
2021/11/07 08:54:31;;;;;;;;;;;10.30;99.80;;;;;;4406380;32;21663;-81
2021/11/07 09:10:06;;;;;;;;;;;10.30;99.80;;;;;;4392737;32;20026;-81
2021/11/07 09:12:33;;;;;;;;;;;10.30;99.90;;;;;;4406450;32;20015;-82
2021/11/07 09:15:03;;;;;;;;;;;10.30;99.80;;;;;;4406569;32;20077;-81
2021/11/07 09:17:31;;;;;;;;;;;10.30;99.80;;;;;;4392374;32;24143;-81
2021/11/07 09:20:04;;;;;;;;;;;10.30;99.90;;;;;;4405790;32;20015;-81
2021/11/07 09:22:44;;;;;;;;;;;10.30;99.80;;;;;;4392791;32;20016;-82
2021/11/07 09:25:20;;;;;;;;;;;10.30;99.80;;;;;;4392341;32;22616;-81
2021/11/07 09:27:53;;;;;;;;;;;10.40;99.90;;;;;;4393101;32;20003;-81
2021/11/07 09:32:58;;;;;;;;;;;10.40;99.90;;;;;;4405728;32;20408;-81
2021/11/07 09:40:45;;;;;;;;;;;10.40;99.90;;;;;;4391045;32;45576;-81
2021/11/07 09:45:53;;;;;;;;;;;10.40;99.90;;;;;;4405258;32;43753;-81
2021/11/07 09:48:43;;;;;;;;;;;10.40;99.90;;;;;;4406080;32;20016;-84
2021/11/07 09:51:17;;;;;;;;;;;10.40;99.90;;;;;;4391661;32;23365;-81
2021/11/07 09:53:46;;;;;;;;;;;10.40;99.90;;;;;;4405927;32;22175;-81
2021/11/07 09:56:14;;;;;;;;;;;10.40;99.90;;;;;;4406044;32;20004;-81
2021/11/07 09:58:44;;;;;;;;;;;10.40;99.90;;;;;;4392802;32;20011;-81
2021/11/07 10:01:11;;;;;;;;;;;10.50;99.90;;;;;;4405928;32;23828;-81
2021/11/07 10:03:41;;;;;;;;;;;10.50;99.90;;;;;;4408737;32;25474;-81
2021/11/07 10:06:25;;;;;;;;;;;10.50;99.90;;;;;;4408534;32;20019;-81
2021/11/07 10:08:53;;;;;;;;;;;10.50;99.90;;;;;;4408884;32;20042;-81
2021/11/07 10:11:25;;;;;;;;;;;10.50;99.90;;;;;;4409283;32;20075;-81
2021/11/07 10:14:02;;;;;;;;;;;10.50;99.90;;;;;;4395135;32;20066;-81
2021/11/07 10:16:43;;;;;;;;;;;10.50;99.90;;;;;;4408768;32;25945;-81
2021/11/07 10:22:19;;;;;;;;;;;10.50;99.80;;;;;;4377798;32;20026;-81
2021/11/07 10:24:53;;;;;;;;;;;10.50;99.80;;;;;;4409200;32;19999;-82
2021/11/07 10:27:20;;;;;;;;;;;10.50;99.80;;;;;;4408728;32;20020;-81
2021/11/07 10:29:51;;;;;;;;;;;10.50;99.80;;;;;;4408828;32;20070;-82
2021/11/07 10:32:26;;;;;;;;;;;10.50;99.70;;;;;;4395061;32;20008;-81
2021/11/07 10:41:25;;;;;;;;;;;10.50;99.60;;;;;;4409060;32;20438;-81
2021/11/07 10:47:20;;;;;;;;;;;10.50;99.50;;;;;;4408789;32;20126;-81
2021/11/07 10:52:37;;;;;;;;;;;10.50;99.50;;;;;;4407684;32;42443;-81
2021/11/07 10:55:05;;;;;;;;;;;10.50;99.40;;;;;;4381632;32;19997;-81
2021/11/07 10:57:36;;;;;;;;;;;10.50;99.40;;;;;;4394404;32;41767;-81
2021/11/07 11:00:12;;;;;;;;;;;10.50;99.40;;;;;;4393620;32;42064;-81
2021/11/07 11:02:39;;;;;;;;;;;10.50;99.40;;;;;;4390495;32;41363;-81
2021/11/07 11:05:08;;;;;;;;;;;10.50;99.40;;;;;;4392639;32;31230;-81
2021/11/07 11:07:48;;;;;;;;;;;10.50;99.30;;;;;;4392147;32;20415;-82
2021/11/07 11:10:21;;;;;;;;;;;10.50;99.30;;;;;;4392652;32;20004;-81
2021/11/07 11:13:06;;;;;;;;;;;10.50;99.20;;;;;;4391002;32;20016;-81
2021/11/07 11:15:50;;;;;;;;;;;10.60;99.30;;;;;;4392861;32;21443;-81
2021/11/07 11:18:51;;;;;;;;;;;10.50;99.20;;;;;;4391764;32;20490;-81
2021/11/07 11:29:29;;;;;;;;;;;10.60;99.00;;;;;;4392785;32;20019;-81
2021/11/07 11:34:26;;;;;;;;;;;10.50;98.90;;;;;;4390635;32;43373;-81
2021/11/07 11:37:15;;;;;;;;;;;10.50;98.90;;;;;;4391784;32;44986;-81
2021/11/07 11:39:47;;;;;;;;;;;10.60;98.90;;;;;;4391015;32;44702;-81
2021/11/07 11:42:24;;;;;;;;;;;10.60;98.90;;;;;;4390655;32;44048;-81
2021/11/07 11:44:54;;;;;;;;;;;10.60;98.90;;;;;;4391801;32;43717;-81
2021/11/07 11:47:41;;;;;;;;;;;10.60;98.80;;;;;;4390564;32;44328;-80
2021/11/07 11:53:04;;;;;;;;;;;10.60;98.80;;;;;;4390598;32;36965;-81
2021/11/07 12:03:30;;;;;;;;;;;10.70;98.70;;;;;;4404744;32;21360;-81
2021/11/07 12:06:09;;;;;;;;;;;10.70;98.70;;;;;;4381682;32;20138;-80
2021/11/07 12:11:42;;;;;;;;;;;10.70;98.50;;;;;;4407396;32;20037;-81
2021/11/07 12:14:20;;;;;;;;;;;10.80;98.40;;;;;;4393362;32;19996;-81
2021/11/07 12:16:59;;;;;;;;;;;10.80;98.40;;;;;;4393940;32;20000;-81
2021/11/07 12:19:29;;;;;;;;;;;10.80;98.40;;;;;;4393288;32;20016;-81
2021/11/07 12:22:00;;;;;;;;;;;10.80;98.40;;;;;;4407209;32;20003;-81
2021/11/07 12:24:33;;;;;;;;;;;10.80;98.30;;;;;;4381105;32;20502;-81
2021/11/07 12:27:20;;;;;;;;;;;10.80;98.30;;;;;;4407195;32;20016;-81
2021/11/07 12:29:48;;;;;;;;;;;10.80;98.20;;;;;;4406835;32;20026;-81
2021/11/07 12:32:16;;;;;;;;;;;10.80;98.30;;;;;;4392881;32;19995;-81
2021/11/07 12:35:19;;;;;;;;;;;10.80;98.30;;;;;;4406972;32;20007;-82
2021/11/07 12:40:45;;;;;;;;;;;10.80;98.20;;;;;;4407413;32;20008;-81
2021/11/07 12:43:15;;;;;;;;;;;10.80;98.20;;;;;;4406897;32;20019;-81
2021/11/07 12:45:46;;;;;;;;;;;10.80;98.20;;;;;;4406787;32;20011;-81
2021/11/07 12:48:34;;;;;;;;;;;10.90;98.20;;;;;;4406671;32;21780;-81
2021/11/07 12:51:01;;;;;;;;;;;10.90;98.20;;;;;;4393647;32;20026;-81
2021/11/07 12:53:48;;;;;;;;;;;10.90;98.20;;;;;;4392538;32;24467;-81
2021/11/07 12:56:26;;;;;;;;;;;10.90;97.90;;;;;;4380402;32;20007;-80
2021/11/07 12:58:53;;;;;;;;;;;10.90;98.00;;;;;;4406526;32;20019;-81
2021/11/07 13:01:20;;;;;;;;;;;10.90;97.80;;;;;;4406098;32;20004;-81
2021/11/07 13:03:52;;;;;;;;;;;10.90;97.90;;;;;;4392392;32;20063;-81
2021/11/07 13:06:19;;;;;;;;;;;11.00;97.90;;;;;;4407064;32;20012;-81
2021/11/07 13:08:54;;;;;;;;;;;11.00;97.90;;;;;;4405181;32;42893;-81
2021/11/07 13:11:34;;;;;;;;;;;11.00;97.90;;;;;;4392284;32;44609;-80
2021/11/07 13:14:10;;;;;;;;;;;11.00;97.80;;;;;;4391833;32;42619;-81
2021/11/07 13:17:04;;;;;;;;;;;10.90;97.60;;;;;;4392139;32;41124;-82
2021/11/07 13:20:07;;;;;;;;;;;11.00;97.60;;;;;;4405293;32;40053;-81
2021/11/07 13:23:02;;;;;;;;;;;10.90;97.40;;;;;;4406464;32;20018;-81
2021/11/07 13:25:47;;;;;;;;;;;10.90;97.50;;;;;;4406057;32;20010;-81
2021/11/07 13:31:08;;;;;;;;;;;10.90;97.60;;;;;;4405984;32;20016;-81
2021/11/07 13:33:38;;;;;;;;;;;10.90;97.50;;;;;;4406120;32;22978;-81
2021/11/07 13:36:05;;;;;;;;;;;10.90;97.50;;;;;;4391954;32;20004;-81
2021/11/07 13:38:50;;;;;;;;;;;10.90;97.40;;;;;;4406427;32;20019;-82
2021/11/07 13:41:21;;;;;;;;;;;10.90;97.50;;;;;;4406220;32;20099;-82
2021/11/07 13:43:56;;;;;;;;;;;10.90;97.50;;;;;;4406250;32;20184;-82
2021/11/07 13:46:23;;;;;;;;;;;10.90;97.50;;;;;;4405994;32;22928;-82
2021/11/07 13:49:02;;;;;;;;;;;10.90;97.50;;;;;;4405677;32;20008;-81
2021/11/07 13:51:33;;;;;;;;;;;11.00;97.50;;;;;;4406040;32;21132;-82
2021/11/07 13:54:02;;;;;;;;;;;11.00;97.50;;;;;;4406688;32;20007;-81
2021/11/07 13:56:30;;;;;;;;;;;11.00;97.50;;;;;;4405792;32;20000;-81
2021/11/07 13:58:57;;;;;;;;;;;11.00;97.50;;;;;;4405961;32;20045;-81
2021/11/07 14:01:29;;;;;;;;;;;11.00;97.50;;;;;;4379347;32;26328;-81
2021/11/07 14:03:57;;;;;;;;;;;11.00;97.40;;;;;;4406348;32;20007;-81
2021/11/07 14:06:29;;;;;;;;;;;11.00;97.40;;;;;;4405785;32;20022;-81
2021/11/07 14:09:02;;;;;;;;;;;11.00;97.40;;;;;;4405820;32;20393;-81
2021/11/07 14:11:31;;;;;;;;;;;11.10;97.40;;;;;;4406201;32;20393;-82
2021/11/07 14:14:00;;;;;;;;;;;11.10;97.30;;;;;;4392007;32;20004;-81
2021/11/07 14:16:28;;;;;;;;;;;11.00;97.30;;;;;;4405792;32;20008;-82
2021/11/07 14:18:56;;;;;;;;;;;11.00;97.30;;;;;;4392075;32;20426;-81
2021/11/07 14:21:26;;;;;;;;;;;11.10;97.20;;;;;;4392026;32;20330;-81
2021/11/07 14:26:40;;;;;;;;;;;11.00;97.10;;;;;;4391318;32;43904;-81
2021/11/07 14:37:12;;;;;;;;;;;11.00;97.10;;;;;;4392736;32;20011;-81
2021/11/07 14:40:00;;;;;;;;;;;11.00;97.00;;;;;;4406407;32;20060;-81
2021/11/07 14:42:52;;;;;;;;;;;11.00;97.00;;;;;;4392199;32;20310;-81
2021/11/07 14:45:43;;;;;;;;;;;11.10;97.10;;;;;;4405623;32;20022;-81
2021/11/07 14:56:34;;;;;;;;;;;11.10;96.90;;;;;;4408206;32;24383;-81
2021/11/07 14:59:16;;;;;;;;;;;11.10;96.90;;;;;;4394451;32;20001;-81
2021/11/07 15:02:12;;;;;;;;;;;11.10;96.90;;;;;;4407942;32;20026;-82
2021/11/07 15:04:55;;;;;;;;;;;11.10;97.20;;;;;;4407489;32;20020;-81
2021/11/07 15:07:32;;;;;;;;;;;11.10;96.80;;;;;;4393859;32;25530;-82
2021/11/07 15:10:12;;;;;;;;;;;11.10;96.80;;;;;;4394582;32;20077;-81
2021/11/07 15:12:53;;;;;;;;;;;11.10;96.80;;;;;;4395307;32;20081;-81
2021/11/07 15:24:28;;;;;;;;;;;11.10;96.70;;;;;;4357027;32;39786;-81
2021/11/07 15:26:58;;;;;;;;;;;11.10;96.60;;;;;;4398683;32;43111;-81
2021/11/07 15:29:33;;;;;;;;;;;11.10;96.60;;;;;;4393835;32;38317;-81
2021/11/07 15:32:05;;;;;;;;;;;11.10;96.50;;;;;;4382476;32;20333;-81
2021/11/07 15:34:34;;;;;;;;;;;11.10;96.50;;;;;;4393272;32;43702;-81
2021/11/07 15:37:02;;;;;;;;;;;11.10;96.50;;;;;;4392925;32;42145;-81
2021/11/07 15:39:30;;;;;;;;;;;11.10;96.50;;;;;;4393556;32;37206;-81
2021/11/07 15:42:04;;;;;;;;;;;11.10;96.40;;;;;;4393096;32;43319;-82
2021/11/07 15:44:54;;;;;;;;;;;11.10;96.40;;;;;;4393080;32;44069;-81
2021/11/07 15:47:26;;;;;;;;;;;11.10;96.40;;;;;;4406921;32;43412;-81
2021/11/07 15:55:06;;;;;;;;;;;11.10;96.30;;;;;;4406831;32;42169;-81
2021/11/07 16:06:05;;;;;;;;;;;11.00;96.10;;;;;;4407453;32;20011;-81
2021/11/07 16:08:42;;;;;;;;;;;11.10;96.20;;;;;;4406962;32;20007;-81
2021/11/07 16:11:18;;;;;;;;;;;11.00;96.20;;;;;;4394109;32;20484;-81
2021/11/07 16:16:53;;;;;;;;;;;11.00;96.10;;;;;;4393570;32;20000;-81
2021/11/07 16:19:26;;;;;;;;;;;11.00;96.00;;;;;;4407377;32;20413;-80
2021/11/07 16:21:53;;;;;;;;;;;11.10;96.00;;;;;;4393779;32;20015;-81
2021/11/07 16:24:22;;;;;;;;;;;11.00;96.00;;;;;;4392831;32;20011;-81
2021/11/07 16:26:56;;;;;;;;;;;11.00;95.90;;;;;;4406801;32;20073;-81
2021/11/07 16:29:30;;;;;;;;;;;11.00;95.90;;;;;;4407326;32;20018;-81
2021/11/07 16:34:32;;;;;;;;;;;11.00;95.90;;;;;;4393306;32;20051;-81
2021/11/07 16:37:11;;;;;;;;;;;11.00;95.80;;;;;;4380962;32;19999;-81
2021/11/07 16:39:48;;;;;;;;;;;11.00;95.80;;;;;;4381261;32;20348;-81
2021/11/07 16:42:16;;;;;;;;;;;11.00;95.80;;;;;;4393447;32;20046;-81
2021/11/07 16:44:43;;;;;;;;;;;11.00;95.70;;;;;;4392914;32;20014;-81
2021/11/07 16:47:18;;;;;;;;;;;11.00;95.70;;;;;;4406844;32;20037;-81
2021/11/07 16:49:45;;;;;;;;;;;11.00;95.70;;;;;;4406893;32;20020;-81
2021/11/07 16:52:19;;;;;;;;;;;11.00;95.70;;;;;;4393285;32;20020;-81
2021/11/07 16:57:22;;;;;;;;;;;11.00;95.70;;;;;;4407352;32;20063;-81
2021/11/07 17:08:01;;;;;;;;;;;11.00;95.50;;;;;;4391884;32;20052;-81
2021/11/07 17:10:24;;;;;;;;;;;11.00;95.50;;;;;;4389764;32;20079;-81
2021/11/07 17:12:56;;;;;;;;;;;10.90;95.40;;;;;;4390274;32;20019;-81
2021/11/07 17:15:35;;;;;;;;;;;11.00;95.30;;;;;;4391263;32;20050;-81
2021/11/07 17:18:32;;;;;;;;;;;11.00;95.30;;;;;;4390658;32;20016;-81
2021/11/07 17:21:53;;;;;;;;;;;11.00;95.20;;;;;;4390462;32;34552;-81
2021/11/07 17:26:30;;;;;;;;;;;11.00;95.20;;;;;;4389338;32;43946;-81
2021/11/07 17:29:34;;;;;;;;;;;11.00;95.50;;;;;;4390124;32;19992;-81
2021/11/07 17:32:07;;;;;;;;;;;11.00;95.20;;;;;;4389065;32;28173;-81
2021/11/07 17:37:36;;;;;;;;;;;11.00;95.10;;;;;;4390438;32;20056;-81
2021/11/07 17:40:28;;;;;;;;;;;11.00;95.10;;;;;;4391529;32;20007;-81
2021/11/07 17:56:47;;;;;;;;;;;10.90;95.20;;;;;;4390125;32;43984;-81
2021/11/07 17:59:17;;;;;;;;;;;10.90;95.10;;;;;;4389076;32;42700;-81
2021/11/07 18:01:47;;;;;;;;;;;10.90;95.20;;;;;;4388539;32;42170;-81
2021/11/07 18:04:15;;;;;;;;;;;10.90;95.20;;;;;;4388983;32;44664;-81
2021/11/07 18:06:47;;;;;;;;;;;10.90;95.20;;;;;;4388963;32;43980;-81
2021/11/07 18:09:22;;;;;;;;;;;10.90;95.20;;;;;;4390301;32;36889;-81
2021/11/07 18:11:51;;;;;;;;;;;10.90;95.20;;;;;;4390197;32;39072;-81
2021/11/07 18:14:23;;;;;;;;;;;10.90;95.20;;;;;;4390325;32;20386;-81